createdAt,value
2022-10-08T00:00:18.792Z,47.78
2022-10-08T00:02:45.560Z,47.41
2022-10-08T00:05:12.272Z,46.48
2022-10-08T00:07:38.911Z,46.89
2022-10-08T00:10:07.595Z,46.48
2022-10-08T00:12:34.308Z,46.01
2022-10-08T00:15:01.238Z,46.14
2022-10-08T00:17:28.160Z,46.25
2022-10-08T00:19:57.793Z,46.37
2022-10-08T00:22:25.095Z,46.32
2022-10-08T00:24:53.403Z,47.12
2022-10-08T00:27:23.787Z,47.32
2022-10-08T00:29:52.047Z,47.03
2022-10-08T00:32:19.802Z,47.57
2022-10-08T00:34:48.189Z,47.14
2022-10-08T00:37:15.347Z,46.56
2022-10-08T00:39:42.156Z,46.39
2022-10-08T00:42:12.931Z,46.64
2022-10-08T00:44:54.836Z,46.22
2022-10-08T00:47:40.678Z,46.30
2022-10-08T00:50:10.142Z,46.05
2022-10-08T00:52:42.384Z,47.08
2022-10-08T00:55:10.056Z,47.40
2022-10-08T00:57:38.636Z,46.85
2022-10-08T01:00:12.263Z,47.30
2022-10-08T01:02:38.970Z,46.91
2022-10-08T01:05:06.385Z,47.80
2022-10-08T01:07:54.992Z,47.99
2022-10-08T01:10:42.133Z,48.32
2022-10-08T01:13:39.337Z,48.00
2022-10-08T01:16:32.561Z,47.95
2022-10-08T01:19:08.152Z,47.58
2022-10-08T01:21:58.509Z,46.78
2022-10-08T01:24:58.381Z,46.89
2022-10-08T01:27:32.453Z,46.79
2022-10-08T01:30:04.408Z,47.59
2022-10-08T01:32:40.319Z,47.79
2022-10-08T01:35:19.429Z,47.46
2022-10-08T01:37:47.448Z,48.09
2022-10-08T01:40:20.215Z,47.94
2022-10-08T01:42:49.401Z,47.99
2022-10-08T01:45:22.740Z,49.24
2022-10-08T01:47:50.987Z,48.73
2022-10-08T01:50:28.109Z,48.73
2022-10-08T01:53:07.169Z,49.36
2022-10-08T01:55:39.934Z,49.34
2022-10-08T01:58:14.590Z,49.25
2022-10-08T02:00:42.169Z,49.35
2022-10-08T02:03:13.259Z,49.98
2022-10-08T02:05:48.088Z,49.84
2022-10-08T02:08:14.799Z,49.58
2022-10-08T02:10:41.502Z,48.97
2022-10-08T02:13:09.293Z,49.18
2022-10-08T02:15:52.851Z,49.23
2022-10-08T02:18:26.040Z,49.03
2022-10-08T02:20:59.880Z,48.33
2022-10-08T02:23:34.727Z,48.74
2022-10-08T02:28:43.483Z,48.66
2022-10-08T02:31:23.214Z,48.75
2022-10-08T02:34:01.105Z,48.89
2022-10-08T02:36:32.450Z,49.35
2022-10-08T02:39:03.918Z,50.09
2022-10-08T02:41:34.414Z,49.80
2022-10-08T02:44:06.479Z,49.88
2022-10-08T02:46:37.606Z,50.63
2022-10-08T02:49:18.137Z,50.38
2022-10-08T02:51:49.637Z,50.24
2022-10-08T02:54:19.921Z,50.21
2022-10-08T02:56:52.583Z,50.65
2022-10-08T02:59:20.727Z,51.24
2022-10-08T03:01:57.473Z,51.06
2022-10-08T03:04:41.525Z,51.00
2022-10-08T03:07:09.553Z,51.41
2022-10-08T03:09:43.356Z,51.76
2022-10-08T03:12:11.800Z,51.80
2022-10-08T03:14:41.942Z,51.28
2022-10-08T03:17:12.613Z,51.64
2022-10-08T03:19:39.387Z,52.14
2022-10-08T03:22:07.531Z,52.08
2022-10-08T03:24:35.565Z,51.08
2022-10-08T03:27:02.446Z,50.95
2022-10-08T03:29:29.056Z,50.26
2022-10-08T03:31:55.598Z,50.33
2022-10-08T03:34:24.834Z,50.31
2022-10-08T03:36:51.538Z,50.25
2022-10-08T03:39:18.117Z,51.06
2022-10-08T03:41:44.641Z,51.48
2022-10-08T03:44:12.357Z,51.72
2022-10-08T03:46:39.073Z,50.74
2022-10-08T03:49:05.658Z,51.66
2022-10-08T03:51:32.351Z,51.82
2022-10-08T03:53:58.899Z,51.24
2022-10-08T03:56:25.497Z,51.43
2022-10-08T03:58:57.518Z,52.21
2022-10-08T04:01:25.637Z,52.25
2022-10-08T04:03:52.620Z,51.59
2022-10-08T04:06:19.486Z,50.45
2022-10-08T04:08:46.090Z,50.82
2022-10-08T04:11:15.971Z,50.09
2022-10-08T04:13:43.692Z,50.23
2022-10-08T04:16:15.664Z,50.80
2022-10-08T04:18:42.904Z,50.49
2022-10-08T04:21:12.377Z,50.04
2022-10-08T04:23:41.010Z,50.17
2022-10-08T04:26:09.043Z,51.24
2022-10-08T04:28:40.449Z,50.82
2022-10-08T04:31:11.490Z,51.19
2022-10-08T04:33:38.174Z,51.27
2022-10-08T04:36:09.586Z,51.25
2022-10-08T04:38:36.209Z,50.93
2022-10-08T04:41:06.555Z,50.68
2022-10-08T04:43:34.850Z,50.61
2022-10-08T04:46:01.751Z,50.57
2022-10-08T04:48:28.347Z,50.26
2022-10-08T04:51:01.913Z,49.49
2022-10-08T04:53:29.251Z,49.92
2022-10-08T04:55:57.158Z,50.49
2022-10-08T04:58:25.722Z,49.32
2022-10-08T05:00:52.295Z,50.00
2022-10-08T05:03:18.836Z,49.62
2022-10-08T05:05:46.392Z,49.32
2022-10-08T05:08:13.002Z,49.10
2022-10-08T05:10:39.701Z,48.68
2022-10-08T05:13:06.300Z,49.07
2022-10-08T05:15:35.506Z,49.09
2022-10-08T05:18:02.062Z,50.67
2022-10-08T05:20:28.595Z,50.01
2022-10-08T05:22:55.150Z,51.12
2022-10-08T05:25:21.705Z,50.84
2022-10-08T05:27:48.780Z,50.03
2022-10-08T05:30:19.729Z,50.90
2022-10-08T05:32:48.726Z,50.80
2022-10-08T05:35:15.819Z,50.71
2022-10-08T05:37:42.358Z,53.01
2022-10-08T05:40:09.318Z,52.42
2022-10-08T05:42:36.106Z,53.38
2022-10-08T05:45:03.725Z,52.89
2022-10-08T05:47:30.542Z,51.99
2022-10-08T05:49:57.089Z,53.19
2022-10-08T05:52:23.666Z,52.36
2022-10-08T05:54:50.217Z,51.33
2022-10-08T05:57:16.729Z,51.76
2022-10-08T05:59:43.273Z,51.76
2022-10-08T06:02:11.313Z,52.69
2022-10-08T06:04:37.867Z,51.64
2022-10-08T06:07:04.879Z,52.42
2022-10-08T06:09:31.447Z,51.23
2022-10-08T06:11:58.460Z,51.46
2022-10-08T06:14:25.269Z,50.66
2022-10-08T06:16:51.798Z,51.07
2022-10-08T06:19:18.412Z,51.02
2022-10-08T06:21:45.043Z,50.67
2022-10-08T06:24:12.581Z,50.61
2022-10-08T06:26:40.982Z,49.69
2022-10-08T06:29:10.868Z,50.35
2022-10-08T06:31:37.489Z,50.09
2022-10-08T06:34:05.067Z,49.85
2022-10-08T06:36:32.807Z,49.24
2022-10-08T06:39:01.886Z,49.98
2022-10-08T06:41:34.782Z,51.62
2022-10-08T06:44:02.954Z,51.43
2022-10-08T06:46:31.284Z,51.17
2022-10-08T06:48:59.154Z,51.13
2022-10-08T06:51:26.094Z,50.21
2022-10-08T06:53:55.088Z,50.72
2022-10-08T06:56:21.674Z,50.50
2022-10-08T06:58:49.423Z,51.22
2022-10-08T07:01:32.627Z,51.59
2022-10-08T07:04:00.681Z,51.50
2022-10-08T07:06:27.604Z,53.40
2022-10-08T07:08:57.271Z,52.58
2022-10-08T07:11:24.458Z,51.90
2022-10-08T07:13:51.174Z,52.05
2022-10-08T07:16:23.238Z,52.24
2022-10-08T07:18:51.482Z,50.87
2022-10-08T07:21:20.132Z,50.18
2022-10-08T07:23:47.183Z,48.62
2022-10-08T07:26:18.555Z,44.74
2022-10-08T07:29:00.783Z,43.71
2022-10-08T07:31:30.219Z,43.68
2022-10-08T07:33:58.617Z,44.16
2022-10-08T07:36:26.477Z,45.81
2022-10-08T07:38:58.130Z,45.92
2022-10-08T07:41:25.014Z,47.59
2022-10-08T07:43:59.481Z,47.19
2022-10-08T07:46:27.478Z,47.47
2022-10-08T07:48:59.105Z,49.13
2022-10-08T07:51:26.646Z,52.17
2022-10-08T07:53:53.301Z,52.11
2022-10-08T07:56:22.078Z,52.37
2022-10-08T07:58:49.650Z,51.14
2022-10-08T08:01:19.747Z,50.81
2022-10-08T08:03:51.722Z,50.64
2022-10-08T08:06:18.253Z,49.87
2022-10-08T08:08:45.815Z,51.21
2022-10-08T08:11:14.940Z,51.32
2022-10-08T08:13:42.319Z,51.35
2022-10-08T08:16:21.165Z,52.44
2022-10-08T08:18:50.327Z,51.22
2022-10-08T08:21:25.403Z,49.51
2022-10-08T08:23:54.635Z,49.40
2022-10-08T08:26:24.521Z,48.65
2022-10-08T08:28:59.774Z,47.62
2022-10-08T08:31:29.850Z,47.56
2022-10-08T08:34:02.662Z,47.92
2022-10-08T08:36:32.917Z,48.38
2022-10-08T08:39:00.483Z,46.18
2022-10-08T08:41:56.051Z,45.73
2022-10-08T08:44:38.537Z,42.40
2022-10-08T08:47:12.428Z,40.13
2022-10-08T08:50:18.965Z,39.58
2022-10-08T08:52:45.932Z,39.66
2022-10-08T08:55:18.428Z,39.51
2022-10-08T08:57:55.324Z,40.83
2022-10-08T09:00:24.216Z,40.65
2022-10-08T09:02:53.957Z,41.98
2022-10-08T09:05:22.156Z,43.59
2022-10-08T09:07:58.847Z,44.15
2022-10-08T09:10:38.078Z,44.13
2022-10-08T09:13:14.705Z,45.73
2022-10-08T09:15:42.662Z,46.17
2022-10-08T09:18:11.695Z,47.61
2022-10-08T09:20:40.478Z,47.99
2022-10-08T09:23:19.963Z,48.90
2022-10-08T09:25:54.506Z,48.22
2022-10-08T09:28:42.933Z,48.01
2022-10-08T09:31:21.143Z,47.83
2022-10-08T09:34:10.721Z,48.79
2022-10-08T09:36:46.632Z,48.38
2022-10-08T09:39:18.246Z,47.68
2022-10-08T09:41:46.902Z,48.03
2022-10-08T09:44:23.457Z,47.68
2022-10-08T09:47:05.006Z,47.89
2022-10-08T09:49:34.367Z,47.42
2022-10-08T09:52:17.119Z,47.02
2022-10-08T09:54:48.786Z,46.32
2022-10-08T09:57:19.285Z,44.63
2022-10-08T09:59:56.374Z,44.01
2022-10-08T10:02:37.056Z,45.18
2022-10-08T10:05:07.020Z,45.66
2022-10-08T10:07:42.662Z,44.46
2022-10-08T10:10:16.365Z,44.09
2022-10-08T10:12:49.081Z,43.60
2022-10-08T10:15:20.062Z,44.79
2022-10-08T10:17:55.690Z,44.47
2022-10-08T10:20:43.130Z,43.32
2022-10-08T10:23:14.942Z,44.35
2022-10-08T10:25:47.637Z,43.60
2022-10-08T10:28:22.916Z,43.69
2022-10-08T10:30:59.555Z,45.27
2022-10-08T10:33:32.464Z,44.23
2022-10-08T10:36:05.553Z,43.55
2022-10-08T10:38:42.785Z,42.90
2022-10-08T10:41:35.576Z,41.41
2022-10-08T10:44:15.569Z,43.40
2022-10-08T10:46:50.829Z,44.21
2022-10-08T10:49:22.681Z,44.36
2022-10-08T10:56:38.759Z,45.17
2022-10-08T10:59:24.198Z,45.61
2022-10-08T11:02:23.981Z,44.98
2022-10-08T11:05:15.011Z,45.06
2022-10-08T11:07:59.514Z,44.35
2022-10-08T11:10:44.168Z,44.78
2022-10-08T11:13:36.558Z,45.11
2022-10-08T11:16:05.925Z,43.95
2022-10-08T11:18:51.252Z,45.17
2022-10-08T11:21:41.865Z,45.91
2022-10-08T11:24:28.762Z,45.83
2022-10-08T11:27:05.169Z,45.55
2022-10-08T11:29:56.307Z,45.41
2022-10-08T11:32:24.330Z,44.15
2022-10-08T11:35:12.798Z,43.75
2022-10-08T11:37:46.880Z,41.90
2022-10-08T11:40:16.602Z,41.10
2022-10-08T11:43:16.852Z,42.25
2022-10-08T11:45:49.782Z,42.60
2022-10-08T11:48:34.539Z,41.93
2022-10-08T11:51:19.287Z,41.87
2022-10-08T11:54:07.053Z,42.27
2022-10-08T11:56:37.672Z,41.89
2022-10-08T11:59:24.541Z,41.74
2022-10-08T12:02:04.247Z,41.20
2022-10-08T12:04:36.283Z,41.12
2022-10-08T12:07:07.602Z,40.88
2022-10-08T12:10:05.261Z,44.43
2022-10-08T12:12:50.338Z,46.21
2022-10-08T12:15:23.279Z,45.83
2022-10-08T12:18:13.471Z,46.92
2022-10-08T12:20:42.375Z,47.05
2022-10-08T12:23:21.195Z,46.29
2022-10-08T12:25:49.300Z,45.87
2022-10-08T12:28:22.089Z,46.86
2022-10-08T12:30:51.258Z,46.65
2022-10-08T12:33:19.338Z,46.07
2022-10-08T12:36:04.586Z,46.79
2022-10-08T12:38:38.578Z,46.15
2022-10-08T12:41:16.825Z,46.87
2022-10-08T12:43:53.070Z,47.63
2022-10-08T12:46:40.160Z,48.36
2022-10-08T12:49:21.601Z,49.01
2022-10-08T12:52:05.653Z,49.51
2022-10-08T12:54:33.453Z,48.99
2022-10-08T12:57:06.817Z,49.81
2022-10-08T12:59:35.231Z,49.53
2022-10-08T13:02:02.095Z,50.24
2022-10-08T13:04:32.395Z,49.70
2022-10-08T13:06:59.054Z,48.16
2022-10-08T13:09:36.654Z,46.69
2022-10-08T13:12:07.872Z,46.35
2022-10-08T13:14:38.513Z,46.15
2022-10-08T13:17:05.404Z,46.76
2022-10-08T13:19:33.545Z,45.35
2022-10-08T13:22:07.892Z,45.28
2022-10-08T13:24:42.869Z,45.94
2022-10-08T13:27:30.607Z,44.29
2022-10-08T13:29:59.611Z,45.61
2022-10-08T13:32:29.627Z,45.19
2022-10-08T13:34:59.365Z,44.29
2022-10-08T13:37:29.993Z,45.12
2022-10-08T13:39:59.971Z,44.32
2022-10-08T13:42:41.369Z,44.30
2022-10-08T13:45:23.642Z,44.38
2022-10-08T13:47:51.508Z,49.63
2022-10-08T13:50:19.289Z,50.84
2022-10-08T13:52:54.578Z,51.22
2022-10-08T13:55:27.208Z,51.24
2022-10-08T13:57:55.363Z,51.18
2022-10-08T14:00:22.939Z,51.24
2022-10-08T14:02:51.555Z,49.55
2022-10-08T14:05:19.058Z,50.29
2022-10-08T14:07:47.633Z,47.63
2022-10-08T14:10:14.537Z,48.29
2022-10-08T14:12:41.504Z,47.97
2022-10-08T14:15:11.576Z,47.48
2022-10-08T14:17:38.585Z,46.96
2022-10-08T14:20:06.008Z,47.90
2022-10-08T14:22:38.765Z,47.14
2022-10-08T14:25:17.539Z,46.75
2022-10-08T14:27:44.462Z,47.56
2022-10-08T14:30:12.897Z,46.87
2022-10-08T14:32:39.721Z,45.84
2022-10-08T14:35:06.677Z,44.60
2022-10-08T14:37:34.439Z,45.50
2022-10-08T14:40:01.904Z,44.65
2022-10-08T14:42:28.434Z,44.45
2022-10-08T14:44:55.015Z,45.33
2022-10-08T14:47:21.587Z,44.67
2022-10-08T14:49:48.531Z,44.43
2022-10-08T14:52:15.038Z,44.55
2022-10-08T14:54:42.744Z,44.24
2022-10-08T14:57:09.795Z,43.54
2022-10-08T14:59:40.067Z,43.85
2022-10-08T15:02:10.284Z,44.48
2022-10-08T15:04:36.913Z,43.76
2022-10-08T15:07:03.497Z,44.07
2022-10-08T15:09:31.545Z,43.86
2022-10-08T15:11:58.365Z,43.81
2022-10-08T15:14:24.949Z,42.84
2022-10-08T15:16:51.591Z,44.16
2022-10-08T15:19:22.705Z,45.49
2022-10-08T15:21:50.923Z,45.93
2022-10-08T15:24:17.574Z,44.54
2022-10-08T15:26:44.185Z,45.09
2022-10-08T15:29:10.883Z,44.59
2022-10-08T15:31:37.530Z,45.56
2022-10-08T15:34:04.110Z,45.13
2022-10-08T15:36:37.066Z,44.96
2022-10-08T15:39:13.336Z,45.16
2022-10-08T15:41:42.469Z,45.19
2022-10-08T15:44:18.198Z,46.35
2022-10-08T15:46:49.828Z,46.01
2022-10-08T15:49:16.888Z,45.62
2022-10-08T15:51:43.459Z,45.24
2022-10-08T15:54:10.549Z,45.06
2022-10-08T15:56:37.445Z,45.06
2022-10-08T15:59:04.514Z,45.76
2022-10-08T16:01:31.937Z,45.86
2022-10-08T16:03:59.887Z,45.01
2022-10-08T16:06:29.421Z,44.60
2022-10-08T16:08:57.800Z,45.15
2022-10-08T16:11:31.148Z,45.32
2022-10-08T16:14:02.161Z,44.61
2022-10-08T16:16:29.524Z,45.10
2022-10-08T16:18:58.212Z,44.73
2022-10-08T16:21:26.317Z,45.51
2022-10-08T16:23:53.027Z,46.28
2022-10-08T16:26:21.371Z,46.35
2022-10-08T16:28:55.207Z,45.93
2022-10-08T16:31:22.725Z,45.31
2022-10-08T16:34:01.384Z,44.64
2022-10-08T16:36:30.757Z,45.38
2022-10-08T16:38:58.126Z,45.01
2022-10-08T16:41:27.962Z,45.31
2022-10-08T16:43:57.437Z,45.56
2022-10-08T16:46:32.374Z,45.26
2022-10-08T16:49:21.286Z,44.49
2022-10-08T16:51:50.766Z,44.17
2022-10-08T16:54:19.093Z,44.59
2022-10-08T16:56:47.260Z,44.26
2022-10-08T16:59:22.417Z,44.81
2022-10-08T17:01:51.248Z,44.46
2022-10-08T17:04:19.009Z,44.30
2022-10-08T17:06:45.922Z,43.87
2022-10-08T17:09:12.751Z,43.93
2022-10-08T17:11:39.960Z,43.51
2022-10-08T17:14:07.678Z,44.06
2022-10-08T17:16:35.848Z,44.01
2022-10-08T17:19:03.862Z,43.54
2022-10-08T17:21:32.033Z,43.81
2022-10-08T17:23:59.749Z,44.54
2022-10-08T17:26:28.195Z,44.17
2022-10-08T17:28:55.409Z,43.80
2022-10-08T17:31:28.963Z,43.65
2022-10-08T17:33:55.863Z,43.19
2022-10-08T17:36:26.516Z,42.92
2022-10-08T17:38:56.034Z,43.44
2022-10-08T17:41:25.726Z,43.07
2022-10-08T17:43:55.722Z,43.49
2022-10-08T17:46:28.815Z,43.66
2022-10-08T17:48:55.829Z,43.24
2022-10-08T17:51:27.893Z,43.29
2022-10-08T17:53:56.832Z,43.40
2022-10-08T17:56:24.718Z,43.70
2022-10-08T17:58:52.138Z,43.97
2022-10-08T18:01:30.773Z,43.74
2022-10-08T18:04:00.844Z,43.60
2022-10-08T18:06:29.096Z,43.49
2022-10-08T18:08:57.917Z,43.21
2022-10-08T18:11:25.954Z,43.15
2022-10-08T18:13:53.062Z,43.83
2022-10-08T18:16:21.016Z,43.52
2022-10-08T18:18:48.536Z,44.35
2022-10-08T18:21:18.024Z,44.29
2022-10-08T18:23:46.555Z,44.35
2022-10-08T18:26:20.638Z,44.54
2022-10-08T18:28:49.752Z,44.58
2022-10-08T18:31:18.186Z,44.09
2022-10-08T18:33:47.011Z,44.14
2022-10-08T18:36:19.215Z,44.52
2022-10-08T18:38:48.772Z,44.68
2022-10-08T18:41:23.415Z,44.62
2022-10-08T18:43:50.405Z,44.43
2022-10-08T18:46:19.321Z,45.12
2022-10-08T18:48:46.827Z,44.92
2022-10-08T18:51:16.924Z,44.92
2022-10-08T18:53:44.602Z,45.61
2022-10-08T18:56:19.914Z,45.16
2022-10-08T18:58:47.064Z,44.65
2022-10-08T19:01:23.085Z,44.78
2022-10-08T19:03:52.453Z,44.87
2022-10-08T19:06:20.833Z,44.46
2022-10-08T19:08:48.569Z,45.06
2022-10-08T19:11:17.922Z,44.94
2022-10-08T19:13:44.912Z,44.80
2022-10-08T19:16:13.734Z,45.84
2022-10-08T19:18:54.961Z,45.03
2022-10-08T19:21:22.858Z,45.93
2022-10-08T19:23:50.104Z,45.83
2022-10-08T19:26:16.818Z,46.02
2022-10-08T19:28:48.454Z,46.02
2022-10-08T19:31:17.711Z,46.03
2022-10-08T19:33:56.463Z,45.65
2022-10-08T19:36:24.934Z,46.07
2022-10-08T19:39:00.503Z,46.38
2022-10-08T19:41:28.016Z,46.17
2022-10-08T19:43:56.251Z,46.81
2022-10-08T19:46:24.131Z,46.43
2022-10-08T19:48:56.200Z,46.32
2022-10-08T19:51:24.237Z,46.24
2022-10-08T19:53:50.986Z,46.18
2022-10-08T19:56:18.179Z,46.63
2022-10-08T19:58:48.635Z,46.40
2022-10-08T20:01:19.608Z,45.99
2022-10-08T20:03:46.918Z,45.69
2022-10-08T20:06:24.093Z,46.05
2022-10-08T20:08:57.692Z,45.75
2022-10-08T20:11:25.623Z,45.94
2022-10-08T20:13:53.305Z,46.23
2022-10-08T20:16:23.490Z,46.02
2022-10-08T20:18:59.324Z,46.00
2022-10-08T20:21:30.341Z,45.55
2022-10-08T20:23:57.218Z,46.01
2022-10-08T20:26:26.486Z,45.89
2022-10-08T20:28:58.359Z,46.19
2022-10-08T20:31:27.768Z,46.60
2022-10-08T20:34:03.220Z,46.05
2022-10-08T20:36:31.181Z,45.76
2022-10-08T20:38:58.151Z,46.12
2022-10-08T20:41:30.404Z,45.94
2022-10-08T20:44:02.764Z,46.74
2022-10-08T20:46:30.482Z,46.53
2022-10-08T20:48:57.770Z,46.93
2022-10-08T20:51:26.075Z,47.44
2022-10-08T20:53:57.993Z,46.86
2022-10-08T20:56:25.399Z,46.45
2022-10-08T20:58:52.436Z,46.96
2022-10-08T21:01:21.493Z,47.46
2022-10-08T21:03:48.102Z,46.94
2022-10-08T21:06:19.849Z,46.93
2022-10-08T21:08:48.590Z,47.86
2022-10-08T21:11:18.135Z,47.71
2022-10-08T21:13:45.795Z,48.09
2022-10-08T21:16:21.635Z,47.91
2022-10-08T21:18:50.615Z,47.84
2022-10-08T21:21:18.017Z,49.27
2022-10-08T21:23:45.985Z,49.32
2022-10-08T21:26:15.056Z,49.10
2022-10-08T21:28:44.054Z,48.92
2022-10-08T21:31:11.523Z,48.54
2022-10-08T21:33:40.122Z,47.90
2022-10-08T21:36:10.732Z,48.19
2022-10-08T21:38:37.712Z,48.49
2022-10-08T21:41:12.055Z,48.51
2022-10-08T21:43:39.963Z,48.50
2022-10-08T21:46:07.920Z,48.52
2022-10-08T21:48:34.685Z,48.23
2022-10-08T21:51:13.750Z,48.61
2022-10-08T21:53:44.446Z,49.25
2022-10-08T21:56:14.185Z,49.13
2022-10-08T21:58:43.551Z,49.26
2022-10-08T22:01:26.268Z,48.46
2022-10-08T22:03:55.069Z,48.09
2022-10-08T22:06:22.268Z,47.34
2022-10-08T22:08:49.076Z,47.36
2022-10-08T22:11:16.423Z,47.24
2022-10-08T22:13:43.016Z,46.90
2022-10-08T22:16:11.720Z,46.98
2022-10-08T22:18:38.546Z,46.47
2022-10-08T22:21:07.699Z,46.43
2022-10-08T22:23:35.485Z,46.80
2022-10-08T22:26:05.742Z,46.97
2022-10-08T22:28:33.200Z,46.36
2022-10-08T22:31:01.905Z,47.12
2022-10-08T22:33:29.833Z,47.52
2022-10-08T22:36:08.082Z,47.44
2022-10-08T22:38:36.917Z,47.60
2022-10-08T22:41:12.167Z,47.17
2022-10-08T22:43:39.933Z,47.46
2022-10-08T22:46:10.332Z,47.68
2022-10-08T22:48:37.574Z,47.85
2022-10-08T22:51:09.281Z,47.78
2022-10-08T22:53:36.025Z,48.13
2022-10-08T22:56:07.789Z,48.01
2022-10-08T22:58:34.953Z,47.90
2022-10-08T23:01:07.178Z,48.00
2022-10-08T23:03:34.946Z,48.26
2022-10-08T23:06:13.535Z,48.29
2022-10-08T23:08:40.906Z,47.83
2022-10-08T23:11:08.904Z,47.50
2022-10-08T23:13:36.003Z,47.57
2022-10-08T23:16:06.351Z,47.53
2022-10-08T23:18:35.333Z,47.42
2022-10-08T23:21:10.069Z,47.13
2022-10-08T23:23:37.271Z,47.14
2022-10-08T23:26:06.147Z,47.08
2022-10-08T23:28:37.104Z,46.67
2022-10-08T23:31:04.715Z,46.69
2022-10-08T23:33:32.074Z,46.70
2022-10-08T23:35:58.704Z,46.99
2022-10-08T23:38:25.241Z,46.54
2022-10-08T23:40:51.920Z,46.80
2022-10-08T23:43:18.582Z,47.25
2022-10-08T23:45:45.164Z,47.30
2022-10-08T23:48:11.975Z,47.38
2022-10-08T23:50:38.820Z,47.33
2022-10-08T23:53:05.600Z,47.46
2022-10-08T23:55:32.439Z,47.51
2022-10-08T23:57:58.945Z,47.17
